Time;durP1;ratioP1;P1;durP2;ratioP2;P2;SDS_P1;SDS_P2;PMS_P1;PMS_P2;Temp;Humidity;BMP_temperature;BMP_pressure;BME280_temperature;BME280_humidity;BME280_pressure;Samples;Min_cycle;Max_cycle;Signal;HPM_P1;HPM_P2
2023/12/12 00:03:08;;;;;;;17.77;2.42;;;;;;;11.82;91.24;99906.44;8285591;28;20754;-58
2023/12/12 00:07:09;;;;;;;14.57;2.67;;;;;;;11.88;90.52;99905.78;8296025;28;20319;-60
2023/12/12 00:11:09;;;;;;;13.93;2.00;;;;;;;11.85;91.13;99900.69;8289183;28;20596;-58
2023/12/12 00:15:10;;;;;;;19.48;2.53;;;;;;;11.81;91.04;99883.06;8296558;28;20120;-58
2023/12/12 00:19:11;;;;;;;14.45;2.28;;;;;;;11.82;90.38;99871.25;8290319;28;20342;-58
2023/12/12 00:23:11;;;;;;;17.10;2.58;;;;;;;11.83;89.65;99869.34;8287289;28;20056;-58
2023/12/12 00:27:12;;;;;;;18.35;2.55;;;;;;;11.82;88.48;99863.13;8325267;28;20751;-56
2023/12/12 00:31:12;;;;;;;21.75;2.60;;;;;;;11.78;88.94;99861.72;8342938;28;20037;-57
2023/12/12 00:35:13;;;;;;;24.17;3.20;;;;;;;11.67;89.56;99858.47;8337873;28;20063;-57
2023/12/12 00:39:13;;;;;;;15.43;3.08;;;;;;;11.53;90.46;99854.50;8341265;28;20529;-57
2023/12/12 00:43:14;;;;;;;20.05;3.03;;;;;;;11.43;91.86;99845.66;8377417;28;20037;-56
2023/12/12 00:47:14;;;;;;;15.88;2.95;;;;;;;11.34;92.13;99849.34;8342197;28;20040;-57
2023/12/12 00:51:14;;;;;;;21.42;2.65;;;;;;;11.21;93.21;99846.22;8336109;28;20056;-56
2023/12/12 00:55:15;;;;;;;19.70;2.55;;;;;;;11.10;93.82;99851.91;8343551;28;20037;-56
2023/12/12 00:59:15;;;;;;;27.13;2.80;;;;;;;10.95;94.82;99848.09;8342484;28;20160;-57
2023/12/12 01:03:16;;;;;;;25.80;2.45;;;;;;;10.88;95.74;99848.88;8336944;28;20049;-57
2023/12/12 01:07:16;;;;;;;13.60;2.33;;;;;;;10.84;95.73;99842.09;8316599;28;20122;-58
2023/12/12 01:11:18;;;;;;;14.93;2.55;;;;;;;10.86;96.24;99846.34;8296111;28;20047;-58
2023/12/12 01:15:18;;;;;;;18.52;2.42;;;;;;;10.83;95.78;99846.66;8283664;28;20738;-58
2023/12/12 01:19:19;;;;;;;25.65;2.72;;;;;;;10.78;96.77;99840.91;8305462;28;20397;-58
2023/12/12 01:23:19;;;;;;;14.45;2.72;;;;;;;10.59;96.91;99838.41;8323391;28;20341;-58
2023/12/12 01:27:19;;;;;;;19.67;2.17;;;;;;;10.47;97.85;99839.66;8255204;28;20136;-60
2023/12/12 01:31:20;;;;;;;26.85;4.00;;;;;;;10.62;97.95;99835.38;8238759;28;20492;-58
2023/12/12 01:35:21;;;;;;;17.20;2.53;;;;;;;10.54;98.21;99838.00;8242282;28;20032;-58
2023/12/12 01:39:21;;;;;;;18.33;2.25;;;;;;;10.50;99.43;99842.03;8282711;28;20184;-58
2023/12/12 01:43:26;;;;;;;16.95;2.88;;;;;;;10.63;99.63;99844.31;8242063;28;22745;-56
2023/12/12 01:47:27;;;;;;;21.35;3.97;;;;;;;10.70;99.45;99846.22;8237207;28;20275;-57
2023/12/12 01:51:27;;;;;;;15.50;2.70;;;;;;;10.74;99.58;99853.00;8242718;28;20098;-55
2023/12/12 01:55:28;;;;;;;24.52;2.70;;;;;;;10.70;100.00;99851.63;8275341;28;20331;-60
2023/12/12 01:59:29;;;;;;;20.25;3.53;;;;;;;10.73;99.83;99851.31;8282201;28;20413;-57
2023/12/12 02:03:31;;;;;;;16.65;3.25;;;;;;;10.74;99.71;99842.19;8286903;28;20057;-57
2023/12/12 02:07:33;;;;;;;31.20;2.97;;;;;;;10.87;99.27;99848.06;8294134;28;20063;-58
2023/12/12 02:11:33;;;;;;;27.80;3.67;;;;;;;10.93;99.07;99852.84;8286821;28;20439;-57
2023/12/12 02:15:34;;;;;;;24.20;3.25;;;;;;;10.97;98.28;99847.94;8271630;28;20332;-57
2023/12/12 02:19:34;;;;;;;28.45;3.50;;;;;;;11.09;96.68;99852.94;8302399;28;20355;-58
2023/12/12 02:23:35;;;;;;;24.40;3.70;;;;;;;11.07;95.66;99849.53;8310166;28;20045;-62
2023/12/12 02:27:37;;;;;;;16.23;2.45;;;;;;;11.05;95.69;99856.97;8319898;28;20064;-63
2023/12/12 02:31:38;;;;;;;20.35;2.40;;;;;;;11.11;93.81;99855.47;8336473;28;20045;-61
2023/12/12 02:35:38;;;;;;;18.50;2.05;;;;;;;11.18;93.29;99851.97;8337337;28;20128;-59
2023/12/12 02:39:39;;;;;;;17.38;2.67;;;;;;;11.19;92.29;99840.13;8336468;28;20048;-58
2023/12/12 02:43:39;;;;;;;29.58;3.08;;;;;;;11.18;92.08;99846.56;8337539;28;20029;-56
2023/12/12 02:47:40;;;;;;;10.60;1.67;;;;;;;11.09;92.54;99835.84;8348810;28;20033;-58
2023/12/12 02:51:40;;;;;;;20.83;2.92;;;;;;;11.01;92.64;99833.94;8351835;28;20048;-57
2023/12/12 02:55:40;;;;;;;18.75;2.35;;;;;;;10.90;93.12;99831.50;8351208;28;20045;-57
2023/12/12 02:59:41;;;;;;;20.83;2.22;;;;;;;10.83;94.04;99830.44;8353262;28;20046;-58
2023/12/12 03:03:42;;;;;;;15.55;2.38;;;;;;;10.82;93.97;99834.16;8328679;28;20260;-56
2023/12/12 03:07:43;;;;;;;17.42;3.03;;;;;;;10.72;94.10;99836.13;8301502;28;20141;-56
2023/12/12 03:11:45;;;;;;;13.27;2.50;;;;;;;10.51;95.46;99830.22;8320403;28;20655;-57
2023/12/12 03:15:45;;;;;;;20.55;3.08;;;;;;;10.38;97.03;99827.06;8351788;28;20059;-57
2023/12/12 03:19:45;;;;;;;18.20;2.58;;;;;;;10.40;96.45;99827.75;8327556;28;20504;-56
2023/12/12 03:23:47;;;;;;;18.45;2.40;;;;;;;10.44;95.97;99831.00;8284461;28;20037;-57
2023/12/12 03:27:47;;;;;;;20.17;2.50;;;;;;;10.44;95.32;99829.16;8258163;28;20142;-56
2023/12/12 03:31:47;;;;;;;18.15;2.10;;;;;;;10.46;95.18;99831.69;8257642;28;20178;-59
2023/12/12 03:35:48;;;;;;;19.48;1.98;;;;;;;10.42;94.61;99822.19;8257183;28;20566;-57
2023/12/12 03:39:48;;;;;;;24.25;2.85;;;;;;;10.50;94.15;99819.56;8255887;28;20041;-57
2023/12/12 03:43:49;;;;;;;19.92;2.55;;;;;;;10.47;94.67;99817.16;8258692;28;20285;-56
2023/12/12 03:47:49;;;;;;;24.40;3.17;;;;;;;10.35;95.77;99813.88;8274512;28;20459;-57
2023/12/12 03:51:50;;;;;;;11.13;2.47;;;;;;;10.23;96.50;99806.16;8313546;28;20072;-57
2023/12/12 03:55:50;;;;;;;19.55;3.28;;;;;;;10.18;97.45;99801.22;8352392;28;20037;-58
2023/12/12 03:59:51;;;;;;;16.27;2.47;;;;;;;10.14;97.42;99794.44;8351259;28;20041;-57
2023/12/12 04:03:52;;;;;;;17.23;2.70;;;;;;;10.15;97.34;99781.81;8352559;28;20052;-58
2023/12/12 04:07:52;;;;;;;20.88;3.00;;;;;;;10.17;97.48;99772.53;8351303;28;20562;-57
2023/12/12 04:11:52;;;;;;;19.23;3.17;;;;;;;10.20;97.16;99765.94;8353970;28;20163;-57
2023/12/12 04:15:53;;;;;;;16.13;2.67;;;;;;;10.23;96.59;99761.09;8352288;28;20059;-56
2023/12/12 04:19:53;;;;;;;17.25;2.58;;;;;;;10.25;96.36;99758.25;8351602;28;20450;-58
2023/12/12 04:23:54;;;;;;;15.10;2.60;;;;;;;10.29;96.50;99754.22;8349557;28;20036;-58
2023/12/12 04:27:54;;;;;;;23.25;3.33;;;;;;;10.29;96.91;99749.66;8385371;28;20044;-58
2023/12/12 04:31:56;;;;;;;19.38;2.70;;;;;;;10.31;96.87;99742.22;8347712;28;20075;-56
2023/12/12 04:35:56;;;;;;;24.45;3.47;;;;;;;10.29;96.77;99748.81;8352250;28;20087;-56
2023/12/12 04:39:57;;;;;;;16.83;3.15;;;;;;;10.24;97.43;99743.03;8351173;28;20041;-56
2023/12/12 04:43:57;;;;;;;20.40;2.53;;;;;;;10.25;97.38;99742.88;8353575;28;20128;-57
2023/12/12 04:47:57;;;;;;;27.02;2.92;;;;;;;10.26;97.96;99744.56;8327635;28;20037;-58
2023/12/12 04:51:58;;;;;;;16.17;3.08;;;;;;;10.29;97.99;99749.66;8283947;28;20320;-58
2023/12/12 04:55:58;;;;;;;18.23;3.08;;;;;;;10.27;98.00;99743.56;8260025;28;20060;-58
2023/12/12 04:59:59;;;;;;;19.48;3.03;;;;;;;10.29;98.23;99738.84;8277959;28;20474;-56
2023/12/12 05:04:00;;;;;;;21.15;3.92;;;;;;;10.34;97.86;99731.09;8294214;28;20052;-56
2023/12/12 05:08:00;;;;;;;18.55;4.43;;;;;;;10.40;97.58;99735.88;8302049;28;20120;-55
2023/12/12 05:12:01;;;;;;;23.60;4.18;;;;;;;10.45;97.30;99733.56;8301528;28;20338;-57
2023/12/12 05:16:01;;;;;;;27.98;3.17;;;;;;;10.41;97.51;99721.38;8346385;28;20033;-58
2023/12/12 05:20:03;;;;;;;16.13;2.63;;;;;;;10.35;98.19;99727.41;8307091;28;20040;-55
2023/12/12 05:24:04;;;;;;;15.23;3.45;;;;;;;10.25;99.37;99729.38;8313635;28;20585;-56
2023/12/12 05:28:04;;;;;;;19.80;3.00;;;;;;;10.09;100.00;99715.72;8314555;28;20724;-55
2023/12/12 05:32:05;;;;;;;25.85;3.58;;;;;;;10.07;100.00;99716.91;8368741;28;20037;-56
2023/12/12 05:36:06;;;;;;;19.25;3.08;;;;;;;10.18;100.00;99724.78;8322588;28;20541;-56
2023/12/12 05:40:07;;;;;;;26.52;3.55;;;;;;;10.30;99.75;99721.63;8293118;28;20698;-56
2023/12/12 05:44:07;;;;;;;20.52;3.22;;;;;;;10.52;98.40;99715.69;8304641;28;20136;-56
2023/12/12 05:48:08;;;;;;;26.73;2.97;;;;;;;10.78;96.67;99719.22;8309786;28;20522;-58
2023/12/12 05:52:08;;;;;;;18.52;3.70;;;;;;;11.09;94.52;99717.69;8316704;28;20668;-56
2023/12/12 05:56:10;;;;;;;22.73;3.50;;;;;;;11.36;92.10;99717.44;8317122;28;20036;-56
2023/12/12 06:00:11;;;;;;;20.45;3.47;;;;;;;11.44;91.45;99712.03;8308042;28;20075;-56
2023/12/12 06:04:24;;;;;;;17.92;2.75;;;;;;;11.56;90.42;99721.53;8286824;27;20951;-57
2023/12/12 06:08:24;;;;;;;18.02;3.38;;;;;;;11.73;88.72;99717.88;8289381;28;20530;-57
2023/12/12 06:12:25;;;;;;;16.38;3.38;;;;;;;11.73;88.94;99715.16;8283590;28;20118;-55
2023/12/12 06:16:25;;;;;;;20.08;3.58;;;;;;;11.66;88.88;99710.59;8336225;28;20044;-57
2023/12/12 06:20:26;;;;;;;16.52;2.85;;;;;;;11.59;89.73;99704.13;8327566;28;20044;-55
2023/12/12 06:24:26;;;;;;;12.57;3.08;;;;;;;11.51;90.08;99699.53;8333562;28;20072;-56
2023/12/12 06:28:27;;;;;;;18.00;2.55;;;;;;;11.44;90.50;99701.19;8339044;28;20407;-56
2023/12/12 06:32:27;;;;;;;28.83;3.50;;;;;;;11.32;91.04;99697.09;8335720;28;20526;-56
2023/12/12 06:36:28;;;;;;;19.83;2.60;;;;;;;11.30;91.40;99692.88;8333587;28;20456;-54
2023/12/12 06:40:30;;;;;;;20.67;3.47;;;;;;;11.20;92.40;99693.00;8294233;28;20488;-56
2023/12/12 06:44:30;;;;;;;21.77;3.75;;;;;;;11.19;92.39;99680.50;8324209;28;20041;-57
2023/12/12 06:48:31;;;;;;;15.93;3.45;;;;;;;11.12;92.74;99684.88;8325387;28;20038;-55
2023/12/12 06:52:32;;;;;;;25.83;4.47;;;;;;;11.02;93.88;99678.78;8326220;28;20041;-56
2023/12/12 06:56:33;;;;;;;18.58;2.83;;;;;;;11.00;94.24;99680.78;8332803;28;20040;-55
2023/12/12 07:00:33;;;;;;;21.58;3.75;;;;;;;11.00;94.05;99672.69;8320827;28;20033;-56
2023/12/12 07:04:34;;;;;;;19.15;3.65;;;;;;;11.02;94.04;99676.06;8326632;28;20045;-55
2023/12/12 07:08:35;;;;;;;20.13;3.45;;;;;;;11.12;93.16;99670.50;8328148;28;20045;-55
2023/12/12 07:12:35;;;;;;;19.88;3.58;;;;;;;11.07;93.14;99671.00;8327117;28;20052;-56
2023/12/12 07:16:36;;;;;;;23.13;3.75;;;;;;;10.94;93.66;99667.91;8309672;28;20488;-56
2023/12/12 07:20:37;;;;;;;22.70;3.65;;;;;;;10.81;94.65;99654.03;8323053;28;20045;-55
2023/12/12 07:24:40;;;;;;;19.77;3.70;;;;;;;10.73;94.56;99645.88;8305380;28;20054;-55
2023/12/12 07:28:40;;;;;;;25.70;3.58;;;;;;;10.56;94.93;99643.25;8309326;28;20565;-56
2023/12/12 07:32:41;;;;;;;17.85;2.97;;;;;;;10.56;95.51;99649.53;8311652;28;20392;-56
2023/12/12 07:36:41;;;;;;;24.38;3.88;;;;;;;10.44;95.34;99642.72;8306918;28;20084;-56
2023/12/12 07:40:43;;;;;;;26.45;3.60;;;;;;;10.39;95.31;99636.06;8311961;28;20563;-56
2023/12/12 07:44:44;;;;;;;21.55;3.92;;;;;;;10.31;95.95;99644.97;8309495;28;20060;-57
2023/12/12 07:48:44;;;;;;;24.20;3.72;;;;;;;10.24;95.87;99635.00;8309219;28;20034;-55
2023/12/12 07:52:45;;;;;;;26.17;3.47;;;;;;;10.12;96.41;99636.28;8306917;28;20132;-59
2023/12/12 07:56:46;;;;;;;25.50;3.35;;;;;;;10.00;96.67;99636.50;8311041;28;20524;-56
2023/12/12 08:00:47;;;;;;;16.48;3.80;;;;;;;9.94;95.92;99626.31;8305966;28;20730;-55
2023/12/12 08:04:47;;;;;;;22.20;4.07;;;;;;;9.84;96.83;99640.94;8311576;28;20068;-57
2023/12/12 08:08:48;;;;;;;17.90;4.38;;;;;;;9.90;96.60;99637.59;8307265;28;20141;-56
2023/12/12 08:12:49;;;;;;;15.68;3.70;;;;;;;10.09;96.04;99639.28;8310545;28;20138;-56
2023/12/12 08:16:49;;;;;;;29.55;4.63;;;;;;;9.95;96.33;99641.50;8305033;28;20408;-55
2023/12/12 08:20:50;;;;;;;22.40;4.10;;;;;;;9.88;96.46;99628.81;8309299;28;20033;-55
2023/12/12 08:24:53;;;;;;;24.30;4.60;;;;;;;9.91;96.83;99631.19;8308059;28;20407;-55
2023/12/12 08:28:54;;;;;;;21.85;4.38;;;;;;;9.97;96.42;99635.94;8308328;28;20048;-55
2023/12/12 08:32:54;;;;;;;31.05;7.65;;;;;;;10.00;96.85;99635.63;8309887;28;20419;-56
2023/12/12 08:36:55;;;;;;;34.53;11.13;;;;;;;10.10;97.04;99630.19;8306125;28;20136;-55
2023/12/12 08:40:55;;;;;;;18.80;4.70;;;;;;;10.15;96.69;99639.47;8308706;28;20072;-56
2023/12/12 08:44:56;;;;;;;14.18;3.63;;;;;;;10.27;96.13;99643.63;8306803;28;20045;-55
2023/12/12 08:48:57;;;;;;;23.05;4.55;;;;;;;10.38;96.76;99623.59;8305961;28;20091;-55
2023/12/12 08:52:58;;;;;;;36.17;9.85;;;;;;;10.43;96.67;99611.28;8304941;28;20041;-56
2023/12/12 08:56:58;;;;;;;27.85;5.78;;;;;;;10.53;96.34;99601.22;8305621;28;20060;-56
2023/12/12 09:00:59;;;;;;;18.98;5.45;;;;;;;10.68;96.20;99593.31;8306294;28;20381;-56
2023/12/12 09:04:59;;;;;;;39.45;10.30;;;;;;;10.82;96.18;99593.53;8303888;28;20052;-56
2023/12/12 09:09:00;;;;;;;23.15;7.25;;;;;;;10.95;95.85;99596.59;8304687;28;20117;-56
2023/12/12 09:13:00;;;;;;;18.58;4.00;;;;;;;11.12;94.80;99587.50;8307373;28;20041;-58
2023/12/12 09:17:01;;;;;;;24.30;5.55;;;;;;;11.15;94.76;99567.38;8324340;28;20045;-57
2023/12/12 09:21:01;;;;;;;20.67;4.40;;;;;;;11.28;95.42;99560.47;8330345;28;20033;-59
2023/12/12 09:25:02;;;;;;;15.05;3.17;;;;;;;11.81;94.27;99557.25;8307339;28;20037;-58
2023/12/12 09:29:02;;;;;;;13.23;2.72;;;;;;;12.23;91.64;99540.72;8307885;28;20042;-57
2023/12/12 09:33:03;;;;;;;11.77;2.60;;;;;;;12.42;90.05;99562.84;8306335;28;20041;-57
2023/12/12 09:37:03;;;;;;;9.02;2.33;;;;;;;12.34;90.79;99543.91;8310354;28;20123;-56
2023/12/12 09:41:04;;;;;;;11.82;2.55;;;;;;;12.27;91.85;99539.34;8307578;28;20041;-57
2023/12/12 09:45:13;;;;;;;13.65;2.90;;;;;;;12.23;92.23;99541.56;8308912;28;20403;-57
2023/12/12 09:49:14;;;;;;;12.73;2.65;;;;;;;12.47;91.09;99533.31;8306324;28;20044;-57
2023/12/12 09:53:15;;;;;;;16.10;2.72;;;;;;;12.35;92.66;99529.31;8308258;28;20067;-56
2023/12/12 09:57:18;;;;;;;8.68;2.10;;;;;;;12.33;93.01;99519.69;8301766;28;20048;-55
2023/12/12 10:01:18;;;;;;;17.52;2.92;;;;;;;12.28;93.93;99508.50;8306488;28;20029;-55
2023/12/12 10:05:19;;;;;;;11.93;2.08;;;;;;;12.34;94.28;99488.84;8300480;28;20041;-56
2023/12/12 10:09:21;;;;;;;12.35;2.15;;;;;;;12.32;93.42;99485.47;8304007;28;20047;-58
2023/12/12 10:13:22;;;;;;;17.42;2.83;;;;;;;12.17;93.45;99481.81;8306114;28;20041;-57
2023/12/12 10:17:25;;;;;;;15.40;2.90;;;;;;;12.16;93.85;99470.13;8303278;28;20048;-56
2023/12/12 10:21:26;;;;;;;20.55;3.70;;;;;;;12.13;95.52;99464.25;8303449;28;20455;-56
2023/12/12 10:25:28;;;;;;;7.88;2.70;;;;;;;12.14;95.76;99446.94;8301297;28;20069;-56
2023/12/12 10:29:31;;;;;;;9.18;2.70;;;;;;;12.16;95.86;99437.63;8303701;28;20033;-56
2023/12/12 10:33:31;;;;;;;15.57;3.42;;;;;;;12.01;97.87;99423.13;8303306;28;20456;-57
2023/12/12 10:37:32;;;;;;;15.20;2.47;;;;;;;12.09;98.08;99433.06;8304399;28;20033;-56
2023/12/12 10:41:32;;;;;;;13.65;3.08;;;;;;;11.99;100.00;99440.59;8304001;28;20064;-57
2023/12/12 10:45:33;;;;;;;11.93;2.70;;;;;;;11.87;100.00;99423.88;8304616;28;20469;-57
2023/12/12 10:49:37;;;;;;;18.02;3.40;;;;;;;11.93;100.00;99414.19;8309389;28;20080;-57
2023/12/12 10:53:37;;;;;;;11.27;3.38;;;;;;;11.83;100.00;99415.25;8308706;28;20101;-56
2023/12/12 10:57:42;;;;;;;10.82;3.50;;;;;;;11.86;100.00;99409.47;8312048;28;20480;-56
2023/12/12 11:01:46;;;;;;;13.15;3.30;;;;;;;11.95;100.00;99406.75;8310307;28;20069;-57
2023/12/12 11:05:50;;;;;;;18.05;3.58;;;;;;;12.14;100.00;99390.06;8310533;28;20570;-57
2023/12/12 11:09:51;;;;;;;11.13;3.13;;;;;;;12.25;100.00;99392.34;8311231;28;20558;-57
2023/12/12 11:13:52;;;;;;;14.65;2.78;;;;;;;12.41;100.00;99386.84;8308664;28;20046;-56
2023/12/12 11:17:53;;;;;;;18.80;3.55;;;;;;;12.37;99.15;99370.09;8309163;28;20041;-56
2023/12/12 11:21:53;;;;;;;14.32;3.22;;;;;;;12.51;97.12;99365.75;8309828;28;20037;-56
2023/12/12 11:25:55;;;;;;;15.70;3.03;;;;;;;12.41;93.60;99370.59;8308532;28;20045;-57
2023/12/12 11:29:55;;;;;;;12.82;2.08;;;;;;;12.66;93.35;99350.38;8308455;28;20092;-57
2023/12/12 11:34:12;;;;;;;8.85;2.75;;;;;;;12.82;91.90;99350.25;8310684;28;20045;-57
2023/12/12 11:38:33;;;;;;;10.32;2.33;;;;;;;12.88;91.33;99325.94;8308043;28;20033;-56
2023/12/12 11:42:34;;;;;;;8.10;2.40;;;;;;;12.78;91.61;99328.06;8307201;28;20091;-57
2023/12/12 11:46:37;;;;;;;11.98;2.50;;;;;;;12.86;91.67;99310.88;8308671;28;20045;-57
2023/12/12 11:50:37;;;;;;;10.85;2.47;;;;;;;12.78;92.34;99303.66;8310406;28;20057;-56
2023/12/12 11:54:38;;;;;;;11.10;3.00;;;;;;;12.65;93.24;99295.31;8309065;28;20132;-56
2023/12/12 11:58:39;;;;;;;7.63;1.85;;;;;;;12.64;93.50;99292.78;8308246;28;20462;-56
2023/12/12 12:02:40;;;;;;;15.82;3.55;;;;;;;12.56;94.78;99285.56;8308449;28;20073;-59
2023/12/12 12:06:42;;;;;;;11.70;2.85;;;;;;;12.45;97.40;99285.16;8309594;28;20077;-59
2023/12/12 12:10:54;;;;;;;7.13;2.92;;;;;;;12.46;98.31;99284.13;8307079;28;20042;-56
2023/12/12 12:15:03;;;;;;;20.58;3.42;;;;;;;12.43;99.32;99268.22;8306802;28;20470;-57
2023/12/12 12:19:29;;;;;;;16.48;3.10;;;;;;;12.41;100.00;99262.16;8306467;28;20480;-56
2023/12/12 12:23:32;;;;;;;14.57;3.55;;;;;;;12.37;100.00;99249.97;8305301;28;20644;-57
2023/12/12 12:27:46;;;;;;;13.85;3.30;;;;;;;12.45;100.00;99263.47;8308681;28;20048;-55
2023/12/12 12:31:46;;;;;;;;;;;;;;;12.42;100.00;99255.72;8306520;28;20069;-57
2023/12/12 12:35:51;;;;;;;11.48;3.65;;;;;;;12.53;100.00;99228.16;8307639;28;19917;-55
2023/12/12 12:39:51;;;;;;;15.45;4.13;;;;;;;12.79;100.00;99217.72;8306474;28;20042;-55
2023/12/12 12:43:53;;;;;;;33.10;10.52;;;;;;;12.98;100.00;99209.00;8305839;28;20044;-59
2023/12/12 12:47:53;;;;;;;21.20;6.40;;;;;;;13.31;100.00;99202.19;8307944;28;20060;-59
2023/12/12 12:51:54;;;;;;;18.48;4.65;;;;;;;13.32;100.00;99203.84;8304961;28;20095;-57
2023/12/12 12:55:54;;;;;;;10.98;3.38;;;;;;;13.18;99.63;99197.41;8304904;28;20038;-60
2023/12/12 12:59:55;;;;;;;12.48;3.20;;;;;;;13.26;99.26;99193.75;8302596;28;20433;-59
2023/12/12 13:03:55;;;;;;;13.07;3.22;;;;;;;13.26;99.63;99172.91;8305023;28;20037;-60
2023/12/12 13:07:56;;;;;;;18.23;4.50;;;;;;;13.23;99.48;99176.00;8306322;28;20041;-57
2023/12/12 13:11:57;;;;;;;18.75;4.20;;;;;;;13.19;100.00;99171.13;8305697;28;20038;-57
2023/12/12 13:15:57;;;;;;;18.98;3.78;;;;;;;13.19;100.00;99168.41;8307791;28;20514;-57
2023/12/12 13:20:00;;;;;;;15.48;4.03;;;;;;;13.23;100.00;99172.44;8305579;28;20066;-58
2023/12/12 13:24:00;;;;;;;14.23;3.85;;;;;;;13.27;99.60;99162.91;8303979;28;20034;-57
2023/12/12 13:28:01;;;;;;;13.10;4.35;;;;;;;13.42;97.64;99163.69;8305821;28;20522;-57
2023/12/12 13:32:01;;;;;;;12.85;4.60;;;;;;;13.55;97.13;99150.25;8306348;28;20040;-56
2023/12/12 13:36:04;;;;;;;12.70;5.00;;;;;;;13.58;96.96;99144.44;8304256;28;20068;-58
2023/12/12 13:40:08;;;;;;;16.23;5.20;;;;;;;13.55;97.45;99133.97;8301416;28;20041;-57
2023/12/12 13:44:10;;;;;;;16.27;5.03;;;;;;;13.51;98.08;99129.97;8305775;28;20045;-57
2023/12/12 13:48:10;;;;;;;16.88;4.45;;;;;;;13.48;97.69;99122.22;8300629;28;20094;-59
2023/12/12 13:52:11;;;;;;;17.27;4.68;;;;;;;13.54;98.30;99111.41;8299896;28;20042;-58
2023/12/12 13:56:12;;;;;;;10.23;4.38;;;;;;;13.53;97.53;99111.59;8299933;28;20095;-58
2023/12/12 14:00:13;;;;;;;12.90;4.70;;;;;;;13.54;98.42;99107.84;8296064;28;20422;-57
2023/12/12 14:04:13;;;;;;;10.60;3.97;;;;;;;13.59;98.74;99113.53;8300414;28;20033;-58
2023/12/12 14:08:13;;;;;;;10.02;3.28;;;;;;;13.54;99.13;99107.84;8303597;28;20525;-59
2023/12/12 14:12:14;;;;;;;6.57;2.60;;;;;;;13.68;98.58;99101.50;8323035;28;20419;-56
2023/12/12 14:16:14;;;;;;;8.45;2.83;;;;;;;13.74;97.99;99100.72;8299021;28;20037;-58
2023/12/12 14:20:15;;;;;;;11.70;3.38;;;;;;;13.72;98.03;99097.34;8299448;28;20084;-57
2023/12/12 14:24:16;;;;;;;15.70;4.43;;;;;;;13.77;98.32;99094.91;8301625;28;20043;-56
2023/12/12 14:28:16;;;;;;;12.45;5.18;;;;;;;13.76;98.56;99093.22;8306417;28;20045;-58
2023/12/12 14:32:18;;;;;;;7.85;3.47;;;;;;;13.74;98.93;99090.72;8306394;28;20033;-58
2023/12/12 14:36:18;;;;;;;8.88;4.28;;;;;;;13.73;99.09;99082.75;8306068;28;20559;-57
2023/12/12 14:40:19;;;;;;;8.40;3.35;;;;;;;13.85;98.74;99082.00;8307563;28;20410;-55
2023/12/12 14:44:20;;;;;;;4.35;2.03;;;;;;;13.92;98.15;99075.81;8307538;28;20068;-55
2023/12/12 14:48:20;;;;;;;5.15;2.53;;;;;;;13.87;98.48;99067.41;8307517;28;20143;-56
2023/12/12 14:52:20;;;;;;;4.30;2.33;;;;;;;13.91;98.42;99071.41;8301365;28;20080;-57
2023/12/12 14:56:21;;;;;;;3.80;2.20;;;;;;;13.94;98.27;99069.16;8306787;28;20554;-57
2023/12/12 15:00:22;;;;;;;6.00;3.15;;;;;;;13.93;98.56;99066.63;8307124;28;20384;-56
2023/12/12 15:04:24;;;;;;;8.88;2.30;;;;;;;14.00;98.20;99062.91;8305509;28;20046;-56
2023/12/12 15:08:24;;;;;;;3.70;2.28;;;;;;;13.95;99.04;99054.53;8307533;28;20071;-56
2023/12/12 15:12:25;;;;;;;5.10;2.97;;;;;;;13.92;99.20;99038.63;8305271;28;20460;-56
2023/12/12 15:16:25;;;;;;;5.05;3.47;;;;;;;13.82;99.76;99033.50;8305620;28;20045;-55
2023/12/12 15:20:26;;;;;;;4.30;1.30;;;;;;;13.79;100.00;99022.22;8308542;28;20082;-57
2023/12/12 15:24:26;;;;;;;2.08;1.50;;;;;;;13.69;100.00;99032.56;8307385;28;20042;-57
2023/12/12 15:28:27;;;;;;;4.32;1.63;;;;;;;13.45;100.00;99028.41;8300768;28;20250;-56
2023/12/12 15:32:27;;;;;;;4.68;2.08;;;;;;;13.34;100.00;99023.50;8315897;28;20041;-57
2023/12/12 15:36:29;;;;;;;2.63;1.60;;;;;;;13.24;100.00;99022.16;8367390;28;20040;-58
2023/12/12 15:40:29;;;;;;;3.03;1.20;;;;;;;13.10;100.00;99009.47;8362429;28;20041;-56
2023/12/12 15:44:30;;;;;;;2.67;1.30;;;;;;;12.83;100.00;99004.75;8369309;28;20036;-58
2023/12/12 15:48:30;;;;;;;2.03;1.30;;;;;;;12.86;100.00;98996.25;8368947;28;20067;-56
2023/12/12 15:52:31;;;;;;;4.55;2.92;;;;;;;12.89;100.00;99001.28;8373688;28;20484;-57
2023/12/12 15:56:31;;;;;;;4.05;2.72;;;;;;;13.02;100.00;98993.34;8376084;28;20041;-58
2023/12/12 16:00:32;;;;;;;6.70;3.80;;;;;;;13.00;100.00;98973.69;8377698;28;20087;-57
2023/12/12 16:04:32;;;;;;;3.83;1.65;;;;;;;13.00;100.00;98970.97;8362244;28;20132;-58
2023/12/12 16:08:32;;;;;;;2.05;1.30;;;;;;;13.07;100.00;98958.31;8371578;28;20215;-57
2023/12/12 16:12:34;;;;;;;2.53;1.05;;;;;;;13.21;100.00;98965.56;8369723;28;20203;-58
2023/12/12 16:16:35;;;;;;;2.15;0.50;;;;;;;13.40;100.00;98951.31;8375953;28;20607;-58
2023/12/12 16:20:36;;;;;;;2.17;0.63;;;;;;;13.37;99.65;98951.69;8377065;28;20044;-58
2023/12/12 16:24:36;;;;;;;2.10;1.17;;;;;;;13.22;100.00;98946.38;8380109;28;20071;-57
2023/12/12 16:28:37;;;;;;;1.70;1.05;;;;;;;13.22;100.00;98942.81;8358187;28;20036;-56
2023/12/12 16:32:37;;;;;;;1.50;1.00;;;;;;;13.22;100.00;98948.22;8371219;28;20458;-58
2023/12/12 16:36:38;;;;;;;1.60;1.00;;;;;;;13.29;100.00;98949.13;8368275;28;20060;-56
2023/12/12 16:40:39;;;;;;;2.42;1.52;;;;;;;13.21;100.00;98952.81;8374229;28;20041;-57
2023/12/12 16:44:41;;;;;;;2.63;1.90;;;;;;;13.08;100.00;98952.69;8368047;28;20071;-58
2023/12/12 16:48:42;;;;;;;2.33;2.13;;;;;;;13.02;100.00;98941.81;8374663;28;20581;-59
2023/12/12 16:52:42;;;;;;;2.88;1.83;;;;;;;12.96;100.00;98947.97;8369542;28;20531;-57
2023/12/12 16:56:44;;;;;;;3.63;2.88;;;;;;;12.94;100.00;98945.44;8370084;28;20044;-56
2023/12/12 17:00:45;;;;;;;2.40;1.85;;;;;;;12.92;100.00;98938.53;8373153;28;20406;-57
2023/12/12 17:04:48;;;;;;;5.43;2.65;;;;;;;12.98;100.00;98943.16;8371997;28;20091;-57
2023/12/12 17:08:50;;;;;;;8.82;6.30;;;;;;;13.00;100.00;98943.84;8366309;28;20278;-59
2023/12/12 17:12:51;;;;;;;7.10;2.35;;;;;;;12.97;100.00;98953.19;8363919;28;20491;-57
2023/12/12 17:16:51;;;;;;;3.45;1.60;;;;;;;12.95;100.00;98944.41;8371165;28;20453;-57
2023/12/12 17:20:52;;;;;;;2.22;1.40;;;;;;;12.89;100.00;98936.19;8374547;28;20072;-57
2023/12/12 17:24:53;;;;;;;5.65;1.48;;;;;;;12.93;100.00;98932.09;8367636;28;20134;-60
2023/12/12 17:28:53;;;;;;;2.40;1.42;;;;;;;12.90;100.00;98927.03;8363874;28;20044;-58
2023/12/12 17:32:53;;;;;;;2.03;1.40;;;;;;;12.87;100.00;98922.00;8366914;28;20492;-56
2023/12/12 17:36:54;;;;;;;2.47;1.30;;;;;;;12.91;100.00;98917.88;8369271;28;20564;-56
2023/12/12 17:40:55;;;;;;;2.22;1.60;;;;;;;12.77;100.00;98903.34;8369720;28;20029;-56
2023/12/12 17:44:56;;;;;;;5.32;1.30;;;;;;;12.83;100.00;98907.13;8367912;28;20091;-57
2023/12/12 17:48:57;;;;;;;2.58;1.17;;;;;;;12.80;100.00;98904.81;8369113;28;20083;-56
2023/12/12 17:53:03;;;;;;;3.67;1.35;;;;;;;12.79;100.00;98912.13;8366294;28;20138;-58
2023/12/12 17:57:04;;;;;;;4.97;2.50;;;;;;;12.69;100.00;98921.59;8361301;28;20033;-58
2023/12/12 18:01:04;;;;;;;2.33;1.55;;;;;;;12.56;100.00;98905.22;8367024;28;20029;-58
2023/12/12 18:05:09;;;;;;;2.10;1.80;;;;;;;12.47;100.00;98909.06;8371250;28;20036;-59
2023/12/12 18:09:10;;;;;;;2.53;1.58;;;;;;;12.54;100.00;98899.13;8393045;28;20043;-59
2023/12/12 18:13:10;;;;;;;3.35;2.10;;;;;;;12.35;100.00;98894.34;8383186;28;20048;-57
2023/12/12 18:17:12;;;;;;;2.70;1.50;;;;;;;12.11;100.00;98886.56;8377451;28;20738;-58
2023/12/12 18:21:16;;;;;;;3.55;2.00;;;;;;;11.89;100.00;98881.06;8374522;28;20207;-58
2023/12/12 18:25:16;;;;;;;21.53;11.40;;;;;;;11.87;100.00;98882.31;8378904;28;20047;-58
2023/12/12 18:29:18;;;;;;;4.72;2.63;;;;;;;11.81;100.00;98875.75;8372241;28;20052;-58
2023/12/12 18:33:19;;;;;;;10.65;5.30;;;;;;;11.82;100.00;98877.44;8376018;28;20098;-58
2023/12/12 18:37:20;;;;;;;8.23;5.47;;;;;;;11.95;100.00;98865.13;8384229;28;20064;-59
2023/12/12 18:41:20;;;;;;;4.90;3.47;;;;;;;11.92;100.00;98865.50;8381477;28;20044;-59